createdAt,value
2018-02-14T00:00:58.045Z,26.98
2018-02-14T00:03:27.004Z,26.73
2018-02-14T00:05:56.005Z,25.80
2018-02-14T00:08:25.212Z,24.95
2018-02-14T00:10:54.153Z,26.73
2018-02-14T00:13:23.060Z,23.85
2018-02-14T00:15:52.215Z,23.55
2018-02-14T00:18:21.477Z,23.83
2018-02-14T00:20:50.690Z,25.10
2018-02-14T00:23:19.884Z,24.63
2018-02-14T00:25:48.814Z,23.80
2018-02-14T00:28:17.811Z,24.63
2018-02-14T00:30:46.701Z,24.65
2018-02-14T00:33:15.554Z,24.52
2018-02-14T00:35:44.506Z,25.60
2018-02-14T00:38:13.409Z,24.75
2018-02-14T00:40:42.720Z,23.87
2018-02-14T00:43:11.593Z,24.58
2018-02-14T00:45:40.570Z,24.87
2018-02-14T00:48:09.433Z,28.23
2018-02-14T00:50:38.356Z,32.50
2018-02-14T00:53:08.043Z,29.48
2018-02-14T00:55:37.080Z,26.48
2018-02-14T00:58:06.003Z,25.30
2018-02-14T01:00:35.186Z,24.60
2018-02-14T01:03:04.235Z,26.02
2018-02-14T01:05:34.065Z,24.90
2018-02-14T01:08:03.771Z,24.45
2018-02-14T01:10:32.704Z,25.08
2018-02-14T01:13:01.674Z,24.75
2018-02-14T01:15:30.505Z,24.83
2018-02-14T01:17:59.841Z,22.75
2018-02-14T01:20:35.632Z,21.05
2018-02-14T01:23:04.753Z,20.62
2018-02-14T01:25:33.697Z,21.62
2018-02-14T01:28:02.588Z,37.25
2018-02-14T01:30:31.699Z,36.63
2018-02-14T01:33:00.809Z,36.15
2018-02-14T01:35:29.890Z,22.02
2018-02-14T01:37:59.132Z,21.83
2018-02-14T01:40:28.070Z,29.92
2018-02-14T01:42:56.953Z,30.88
2018-02-14T01:45:25.852Z,26.92
2018-02-14T01:47:55.053Z,41.70
2018-02-14T01:53:20.315Z,17.33
2018-02-14T01:55:49.965Z,17.35
2018-02-14T01:58:19.626Z,16.87
2018-02-14T02:00:48.529Z,17.35
2018-02-14T02:03:17.721Z,16.33
2018-02-14T02:05:47.472Z,17.10
2018-02-14T02:08:17.155Z,15.60
2018-02-14T02:10:45.974Z,16.45
2018-02-14T02:13:14.917Z,16.65
2018-02-14T02:15:43.783Z,36.97
2018-02-14T02:18:12.749Z,52.45
2018-02-14T02:20:42.083Z,48.13
2018-02-14T02:23:11.987Z,21.55
2018-02-14T02:25:40.816Z,22.70
2018-02-14T02:28:09.707Z,35.92
2018-02-14T02:30:38.603Z,18.35
2018-02-14T02:33:07.525Z,19.98
2018-02-14T02:35:37.245Z,40.63
2018-02-14T02:38:06.151Z,47.80
2018-02-14T02:40:35.536Z,21.02
2018-02-14T02:43:05.382Z,19.62
2018-02-14T02:45:34.288Z,40.55
2018-02-14T02:48:03.227Z,31.67
2018-02-14T02:50:32.114Z,30.45
2018-02-14T02:53:01.056Z,21.37
2018-02-14T02:55:29.925Z,22.90
2018-02-14T02:57:58.941Z,35.25
2018-02-14T03:00:28.156Z,39.72
2018-02-14T03:02:57.135Z,46.03
2018-02-14T03:05:26.178Z,43.17
2018-02-14T03:07:55.988Z,49.42
2018-02-14T03:10:24.978Z,40.17
2018-02-14T03:12:54.625Z,44.88
2018-02-14T03:15:23.681Z,45.75
2018-02-14T03:17:52.748Z,22.58
2018-02-14T03:20:21.645Z,17.08
2018-02-14T03:22:50.788Z,17.65
2018-02-14T03:25:19.759Z,35.15
2018-02-14T03:27:49.435Z,32.55
2018-02-14T03:30:18.241Z,20.98
2018-02-14T03:32:47.179Z,18.85
2018-02-14T03:35:16.033Z,21.12
2018-02-14T03:37:45.034Z,40.85
2018-02-14T03:40:13.922Z,31.80
2018-02-14T03:42:43.933Z,19.35
2018-02-14T03:45:13.605Z,18.95
2018-02-14T03:47:42.510Z,18.50
2018-02-14T03:50:11.360Z,18.05
2018-02-14T03:52:40.282Z,29.73
2018-02-14T03:55:09.497Z,75.53
2018-02-14T03:57:39.748Z,38.63
2018-02-14T04:00:08.835Z,28.83
2018-02-14T04:02:37.857Z,47.50
2018-02-14T04:05:06.850Z,45.92
2018-02-14T04:07:36.244Z,63.85
2018-02-14T04:10:05.467Z,54.53
2018-02-14T04:12:34.627Z,44.63
2018-02-14T04:15:04.552Z,21.60
2018-02-14T04:17:33.448Z,29.37
2018-02-14T04:20:02.369Z,40.33
2018-02-14T04:22:31.320Z,38.65
2018-02-14T04:25:00.363Z,17.17
2018-02-14T04:27:29.696Z,23.42
2018-02-14T04:29:59.596Z,27.83
2018-02-14T04:32:28.520Z,16.67
2018-02-14T04:34:58.183Z,22.73
2018-02-14T04:37:27.065Z,27.27
2018-02-14T04:39:56.031Z,16.98
2018-02-14T04:42:25.113Z,33.60
2018-02-14T04:44:54.306Z,40.70
2018-02-14T04:47:23.878Z,25.77
2018-02-14T04:49:53.023Z,17.92
2018-02-14T04:52:21.941Z,38.15
2018-02-14T04:54:51.004Z,20.05
2018-02-14T04:57:19.942Z,15.90
2018-02-14T04:59:49.152Z,18.05
2018-02-14T05:02:18.061Z,25.95
2018-02-14T05:04:47.630Z,34.05
2018-02-14T05:07:16.665Z,30.10
2018-02-14T05:09:45.900Z,17.10
2018-02-14T05:12:14.873Z,15.13
2018-02-14T05:14:44.016Z,16.17
2018-02-14T05:17:12.830Z,19.87
2018-02-14T05:19:41.817Z,20.70
2018-02-14T05:22:10.792Z,24.50
2018-02-14T05:24:40.416Z,24.42
2018-02-14T05:27:09.796Z,16.60
2018-02-14T05:29:38.698Z,14.87
2018-02-14T05:32:07.640Z,17.80
2018-02-14T05:34:36.605Z,16.02
2018-02-14T05:37:05.660Z,16.23
2018-02-14T05:39:34.579Z,16.12
2018-02-14T05:42:04.262Z,22.27
2018-02-14T05:44:33.209Z,37.08
2018-02-14T05:47:02.102Z,28.55
2018-02-14T05:49:31.769Z,29.40
2018-02-14T05:52:00.823Z,17.37
2018-02-14T05:54:30.167Z,18.33
2018-02-14T05:56:59.029Z,24.40
2018-02-14T05:59:28.147Z,18.95
2018-02-14T06:01:57.954Z,14.10
2018-02-14T06:04:26.890Z,16.10
2018-02-14T06:06:55.954Z,14.70
2018-02-14T06:09:25.077Z,17.05
2018-02-14T06:11:55.014Z,29.25
2018-02-14T06:14:24.041Z,29.17
2018-02-14T06:16:52.850Z,15.20
2018-02-14T06:19:21.741Z,17.80
2018-02-14T06:21:51.801Z,23.60
2018-02-14T06:24:20.825Z,18.97
2018-02-14T06:26:50.597Z,23.75
2018-02-14T06:29:19.845Z,25.85
2018-02-14T06:31:48.819Z,29.12
2018-02-14T06:34:17.977Z,35.33
2018-02-14T06:36:46.966Z,38.50
2018-02-14T06:39:15.991Z,34.47
2018-02-14T06:41:45.000Z,31.63
2018-02-14T06:44:14.070Z,21.97
2018-02-14T06:46:43.034Z,41.13
2018-02-14T06:49:12.712Z,26.40
2018-02-14T06:51:41.767Z,23.13
2018-02-14T06:54:10.965Z,34.73
2018-02-14T06:56:39.935Z,27.67
2018-02-14T06:59:09.025Z,32.30
2018-02-14T07:01:38.802Z,15.80
2018-02-14T07:04:07.694Z,22.03
2018-02-14T07:06:36.565Z,15.63
2018-02-14T07:09:05.721Z,16.73
2018-02-14T07:11:35.459Z,20.73
2018-02-14T07:14:04.405Z,39.60
2018-02-14T07:16:33.553Z,42.07
2018-02-14T07:19:02.605Z,19.67
2018-02-14T07:21:31.573Z,20.10
2018-02-14T07:24:00.983Z,31.43
2018-02-14T07:26:30.685Z,37.90
2018-02-14T07:28:59.728Z,19.17
2018-02-14T07:31:29.139Z,16.30
2018-02-14T07:33:58.158Z,17.30
2018-02-14T07:36:27.490Z,18.97
2018-02-14T07:38:56.437Z,42.47
2018-02-14T07:41:25.413Z,26.33
2018-02-14T07:43:54.410Z,30.67
2018-02-14T07:46:23.337Z,37.10
2018-02-14T07:48:52.282Z,17.87
2018-02-14T07:51:21.222Z,19.40
2018-02-14T07:53:50.206Z,27.10
2018-02-14T07:56:19.247Z,31.87
2018-02-14T07:58:49.329Z,25.63
2018-02-14T08:01:18.480Z,40.07
2018-02-14T08:03:47.581Z,44.53
2018-02-14T08:06:16.520Z,30.73
2018-02-14T08:08:46.203Z,38.80
2018-02-14T08:11:15.098Z,42.27
2018-02-14T08:13:44.058Z,28.10
2018-02-14T08:16:13.156Z,21.37
2018-02-14T08:18:42.053Z,18.07
2018-02-14T08:21:11.224Z,20.60
2018-02-14T08:23:40.137Z,26.27
2018-02-14T08:26:09.821Z,28.03
2018-02-14T08:28:38.741Z,30.47
2018-02-14T08:31:07.698Z,37.23
2018-02-14T08:33:37.257Z,33.73
2018-02-14T08:36:06.420Z,28.40
2018-02-14T08:38:35.376Z,24.40
2018-02-14T08:41:04.301Z,26.50
2018-02-14T08:43:33.231Z,30.17
2018-02-14T08:46:02.124Z,40.03
2018-02-14T08:48:30.975Z,39.57
2018-02-14T08:50:59.906Z,33.07
2018-02-14T08:53:29.190Z,29.23
2018-02-14T08:55:58.109Z,32.70
2018-02-14T08:58:27.158Z,35.10
2018-02-14T09:00:56.117Z,30.60
2018-02-14T09:03:26.076Z,30.83
2018-02-14T09:05:55.433Z,30.27
2018-02-14T09:08:24.582Z,32.07
2018-02-14T09:10:53.568Z,32.20
2018-02-14T09:13:22.442Z,31.13
2018-02-14T09:15:51.343Z,32.57
2018-02-14T09:18:20.441Z,28.23
2018-02-14T09:20:49.251Z,18.50
2018-02-14T09:23:18.321Z,18.13
2018-02-14T09:25:47.980Z,19.57
2018-02-14T09:28:16.972Z,17.07
2018-02-14T09:30:46.130Z,15.13
2018-02-14T09:33:15.042Z,14.63
2018-02-14T09:35:44.018Z,12.53
2018-02-14T09:38:12.906Z,13.47
2018-02-14T09:40:41.817Z,13.10
2018-02-14T09:43:10.929Z,15.30
2018-02-14T09:45:39.936Z,22.53
2018-02-14T09:48:10.064Z,18.57
2018-02-14T09:50:39.025Z,17.83
2018-02-14T09:53:08.008Z,16.07
2018-02-14T09:55:37.085Z,13.77
2018-02-14T09:58:06.013Z,15.73
2018-02-14T10:00:35.371Z,11.43
2018-02-14T10:03:05.250Z,11.47
2018-02-14T10:05:34.374Z,11.30
2018-02-14T10:08:03.812Z,9.77
2018-02-14T10:10:33.078Z,12.37
2018-02-14T10:13:02.193Z,9.30
2018-02-14T10:15:31.105Z,10.47
2018-02-14T10:18:00.341Z,13.37
2018-02-14T10:20:29.268Z,20.80
2018-02-14T10:22:58.167Z,12.03
2018-02-14T10:25:27.078Z,25.60
2018-02-14T10:27:55.946Z,15.43
2018-02-14T10:30:24.903Z,13.13
2018-02-14T10:32:54.665Z,6.50
2018-02-14T10:35:23.545Z,6.53
2018-02-14T10:37:52.722Z,7.50
2018-02-14T10:40:22.325Z,10.13
2018-02-14T10:42:51.971Z,25.77
2018-02-14T10:45:20.953Z,14.47
2018-02-14T10:47:49.868Z,9.50
2018-02-14T10:50:18.978Z,7.27
2018-02-14T10:52:47.888Z,21.30
2018-02-14T10:55:17.512Z,12.30
2018-02-14T10:57:47.253Z,8.93
2018-02-14T11:03:36.524Z,7.77
2018-02-14T11:06:11.920Z,9.60
2018-02-14T11:08:40.894Z,17.07
2018-02-14T11:11:09.781Z,16.10
2018-02-14T11:13:38.882Z,14.23
2018-02-14T11:16:08.014Z,15.27
2018-02-14T11:18:37.708Z,12.73
2018-02-14T11:21:06.585Z,16.53
2018-02-14T11:23:35.982Z,17.37
2018-02-14T11:26:04.908Z,11.03
2018-02-14T11:28:33.918Z,10.23
2018-02-14T11:31:02.861Z,4.97
2018-02-14T11:33:31.842Z,8.00
2018-02-14T11:36:00.774Z,3.43
2018-02-14T11:38:29.658Z,14.07
2018-02-14T11:40:59.357Z,7.03
2018-02-14T11:43:29.137Z,16.93
2018-02-14T11:45:58.078Z,8.43
2018-02-14T11:48:28.019Z,10.20
2018-02-14T11:50:57.189Z,13.30
2018-02-14T11:53:26.202Z,5.47
2018-02-14T11:55:55.159Z,2.03
2018-02-14T11:58:24.021Z,2.97
2018-02-14T12:00:53.029Z,7.00
2018-02-14T12:03:22.105Z,7.50
2018-02-14T12:05:51.078Z,5.83
2018-02-14T12:08:20.001Z,6.57
2018-02-14T12:10:48.867Z,4.60
2018-02-14T12:13:18.127Z,7.30
2018-02-14T12:15:47.146Z,8.93
2018-02-14T12:18:16.024Z,11.20
2018-02-14T12:20:44.952Z,7.77
2018-02-14T12:23:13.954Z,8.73
2018-02-14T12:25:42.872Z,9.80
2018-02-14T12:28:11.785Z,8.53
2018-02-14T12:30:41.045Z,11.63
2018-02-14T12:33:10.097Z,6.10
2018-02-14T12:35:39.678Z,8.60
2018-02-14T12:38:09.473Z,4.57
2018-02-14T12:40:38.438Z,6.60
2018-02-14T12:43:18.282Z,4.03
2018-02-14T13:06:23.933Z,3.10
2018-02-14T13:08:53.138Z,5.53
2018-02-14T13:11:23.166Z,3.00
2018-02-14T13:13:52.389Z,1.90
2018-02-14T13:16:21.628Z,3.67
2018-02-14T13:18:50.757Z,2.10
2018-02-14T13:21:19.714Z,2.80
2018-02-14T13:23:48.516Z,4.57
2018-02-14T13:26:17.525Z,2.40
2018-02-14T13:28:46.438Z,4.50
2018-02-14T13:31:15.392Z,8.93
2018-02-14T13:33:44.701Z,4.73
2018-02-14T13:36:13.656Z,9.10
2018-02-14T13:38:42.589Z,6.07
2018-02-14T13:41:11.558Z,5.47
2018-02-14T13:43:40.536Z,7.35
2018-02-14T13:46:09.418Z,6.93
2018-02-14T13:48:39.153Z,8.57
2018-02-14T13:51:08.140Z,9.00
2018-02-14T13:53:37.274Z,21.87
2018-02-14T13:56:06.184Z,2.40
2018-02-14T13:58:35.072Z,5.17
2018-02-14T14:01:04.104Z,9.10
2018-02-14T14:03:33.117Z,16.23
2018-02-14T14:06:02.718Z,7.63
2018-02-14T14:08:31.654Z,10.10
2018-02-14T14:11:00.548Z,7.23
2018-02-14T14:42:39.318Z,5.67
2018-02-14T14:45:08.274Z,3.50
2018-02-14T14:47:37.201Z,5.80
2018-02-14T14:50:06.801Z,8.03
2018-02-14T14:52:36.421Z,6.60
2018-02-14T14:55:05.214Z,3.43
2018-02-14T14:57:34.763Z,6.57
2018-02-14T15:00:03.980Z,4.97
2018-02-14T15:02:32.954Z,5.07
2018-02-14T15:05:02.026Z,3.93
2018-02-14T15:07:31.009Z,4.00
2018-02-14T15:09:59.835Z,3.77
2018-02-14T15:12:29.638Z,6.77
2018-02-14T15:14:58.614Z,22.97
2018-02-14T15:17:27.409Z,9.57
2018-02-14T15:19:56.164Z,12.30
2018-02-14T15:22:25.709Z,15.00
2018-02-14T15:24:54.505Z,10.60
2018-02-14T15:27:23.478Z,13.40
2018-02-14T15:29:52.400Z,11.80
2018-02-14T15:32:21.138Z,10.77
2018-02-14T15:34:50.754Z,4.90
2018-02-14T15:37:19.611Z,5.93
2018-02-14T15:39:48.936Z,18.93
2018-02-14T15:42:18.489Z,13.40
2018-02-14T15:44:47.356Z,6.10
2018-02-14T15:47:16.471Z,7.80
2018-02-14T15:49:45.258Z,23.83
2018-02-14T15:54:12.224Z,4.73
2018-02-14T15:56:41.165Z,4.97
2018-02-14T15:59:10.030Z,4.40
2018-02-14T16:01:39.110Z,7.50
2018-02-14T16:04:08.474Z,3.97
2018-02-14T16:06:37.757Z,4.00
2018-02-14T16:09:06.784Z,2.87
2018-02-14T16:11:36.737Z,4.05
2018-02-14T16:14:05.671Z,6.60
2018-02-14T16:16:34.510Z,8.70
2018-02-14T16:19:03.382Z,7.57
2018-02-14T16:24:08.505Z,9.30
2018-02-14T16:26:37.350Z,18.53
2018-02-14T16:29:06.155Z,11.97
2018-02-14T16:31:35.270Z,12.73
2018-02-14T16:34:04.076Z,9.97
2018-02-14T16:36:32.901Z,8.00
2018-02-14T16:39:01.932Z,4.47
2018-02-14T16:41:30.765Z,2.40
2018-02-14T16:44:00.366Z,2.10
2018-02-14T16:46:29.279Z,1.60
2018-02-14T16:48:58.054Z,1.60
2018-02-14T16:51:26.825Z,2.30
2018-02-14T16:53:59.807Z,2.77
2018-02-14T16:56:29.569Z,3.53
2018-02-14T16:58:58.386Z,3.00
2018-02-14T17:01:27.268Z,4.47
2018-02-14T17:03:56.845Z,5.43
2018-02-14T17:06:25.691Z,6.63
2018-02-14T17:08:54.469Z,8.47
2018-02-14T17:11:23.233Z,9.30
2018-02-14T17:13:52.786Z,6.20
2018-02-14T17:16:21.649Z,6.23
2018-02-14T17:18:51.394Z,12.87
2018-02-14T17:21:22.200Z,20.60
2018-02-14T17:23:55.574Z,17.20
2018-02-14T17:26:29.050Z,13.93
2018-02-14T17:28:58.914Z,29.07
2018-02-14T17:31:28.462Z,13.30
2018-02-14T17:34:00.269Z,14.53
2018-02-14T17:36:30.123Z,11.73
2018-02-14T17:38:59.484Z,12.40
2018-02-14T17:41:28.389Z,16.17
2018-02-14T17:43:57.114Z,16.10
2018-02-14T17:46:25.879Z,10.67
2018-02-14T17:48:55.473Z,11.03
2018-02-14T17:51:24.710Z,10.80
2018-02-14T17:53:53.632Z,12.00
2018-02-14T17:56:22.418Z,12.33
2018-02-14T17:58:52.058Z,6.37
2018-02-14T18:01:20.882Z,6.47
2018-02-14T18:03:50.750Z,6.23
2018-02-14T18:06:19.798Z,5.80
2018-02-14T18:08:49.613Z,6.80
2018-02-14T18:11:18.491Z,6.97
2018-02-14T18:13:47.553Z,10.70
2018-02-14T18:16:17.151Z,13.40
2018-02-14T18:18:46.059Z,10.33
2018-02-14T18:21:15.046Z,16.20
2018-02-14T18:23:43.895Z,17.90
2018-02-14T18:26:13.417Z,13.53
2018-02-14T18:28:42.457Z,15.00
2018-02-14T18:31:11.278Z,18.60
2018-02-14T18:33:41.094Z,22.43
2018-02-14T18:36:10.085Z,18.40
2018-02-14T18:38:39.266Z,13.90
2018-02-14T18:41:08.152Z,15.63
2018-02-14T18:43:37.769Z,16.53
2018-02-14T18:46:06.713Z,19.83
2018-02-14T18:48:35.696Z,18.50
2018-02-14T18:51:04.511Z,17.93
2018-02-14T18:53:34.277Z,17.60
2018-02-14T18:56:03.260Z,14.93
2018-02-14T18:58:32.953Z,14.63
2018-02-14T19:01:01.853Z,10.30
2018-02-14T19:03:31.004Z,6.63
2018-02-14T19:06:01.676Z,14.77
2018-02-14T19:08:30.806Z,8.83
2018-02-14T19:10:59.579Z,15.40
2018-02-14T19:13:29.245Z,15.50
2018-02-14T19:15:58.113Z,15.80
2018-02-14T19:18:26.900Z,16.37
2018-02-14T19:20:55.907Z,24.93
2018-02-14T19:23:25.467Z,21.30
2018-02-14T19:25:55.273Z,13.50
2018-02-14T19:28:24.830Z,11.27
2018-02-14T19:30:53.683Z,12.17
2018-02-14T19:33:23.276Z,13.20
2018-02-14T19:35:51.990Z,19.97
2018-02-14T19:38:20.924Z,16.30
2018-02-14T19:40:49.752Z,14.63
2018-02-14T19:43:19.594Z,22.27
2018-02-14T19:45:48.421Z,30.97
2018-02-14T19:48:17.143Z,20.43
2018-02-14T19:50:46.142Z,18.53
2018-02-14T19:53:15.434Z,13.73
2018-02-14T19:55:45.177Z,11.60
2018-02-14T19:58:14.317Z,13.50
2018-02-14T20:00:43.609Z,11.20
2018-02-14T20:03:12.501Z,8.53
2018-02-14T20:05:41.588Z,7.00
2018-02-14T20:08:11.474Z,7.33
2018-02-14T20:10:40.595Z,7.37
2018-02-14T20:13:09.470Z,4.70
2018-02-14T20:15:38.467Z,5.10
2018-02-14T20:18:07.588Z,9.10
2018-02-14T20:20:37.238Z,5.40
2018-02-14T20:23:06.408Z,4.63
2018-02-14T20:25:35.208Z,4.17
2018-02-14T20:28:04.760Z,3.23
2018-02-14T20:30:33.581Z,3.60
2018-02-14T20:33:02.484Z,3.83
2018-02-14T20:35:32.225Z,3.63
2018-02-14T20:38:01.063Z,4.00
2018-02-14T20:40:29.897Z,4.20
2018-02-14T20:42:58.863Z,5.37
2018-02-14T20:45:28.418Z,6.97
2018-02-14T20:47:57.324Z,7.03
2018-02-14T20:50:26.118Z,6.10
2018-02-14T20:52:55.536Z,6.60
2018-02-14T20:55:24.679Z,5.40
2018-02-14T20:57:54.455Z,4.83
2018-02-14T21:00:23.229Z,5.07
2018-02-14T21:02:51.929Z,5.83
2018-02-14T21:05:20.711Z,5.50
2018-02-14T21:07:50.321Z,7.00
2018-02-14T21:10:19.281Z,21.30
2018-02-14T21:12:48.996Z,16.30
2018-02-14T21:15:18.005Z,17.37
2018-02-14T21:17:47.612Z,19.17
2018-02-14T21:20:16.553Z,11.03
2018-02-14T21:22:45.318Z,9.07
2018-02-14T21:25:14.886Z,8.10
2018-02-14T21:27:43.761Z,5.70
2018-02-14T21:30:12.717Z,6.40
2018-02-14T21:32:41.552Z,8.17
2018-02-14T21:35:23.666Z,12.87
2018-02-14T21:37:53.185Z,16.87
2018-02-14T21:40:21.943Z,20.53
2018-02-14T21:42:50.772Z,12.77
2018-02-14T21:45:19.584Z,16.10
2018-02-14T21:47:48.381Z,25.67
2018-02-14T21:50:17.299Z,17.93
2018-02-14T21:52:46.997Z,24.07
2018-02-14T21:55:15.785Z,11.63
2018-02-14T21:57:44.788Z,15.03
2018-02-14T22:00:13.775Z,5.70
2018-02-14T22:02:42.882Z,6.30
2018-02-14T22:05:11.922Z,14.03
2018-02-14T22:07:40.733Z,9.20
2018-02-14T22:10:09.668Z,5.87
2018-02-14T22:12:38.483Z,6.03
2018-02-14T22:15:08.175Z,7.90
2018-02-14T22:17:37.352Z,42.40
2018-02-14T22:20:06.332Z,20.67
2018-02-14T22:22:35.640Z,8.53
2018-02-14T22:25:04.441Z,6.60
2018-02-14T22:27:33.245Z,5.60
2018-02-14T22:30:02.442Z,5.50
2018-02-14T22:32:31.350Z,5.50
2018-02-14T22:35:00.273Z,5.62
2018-02-14T22:37:29.145Z,6.65
2018-02-14T22:39:58.862Z,6.22
2018-02-14T22:42:27.759Z,5.75
2018-02-14T22:44:56.715Z,7.03
2018-02-14T22:47:25.827Z,9.07
2018-02-14T22:49:55.407Z,14.90
2018-02-14T22:52:25.050Z,19.67
2018-02-14T22:54:53.840Z,21.87
2018-02-14T22:57:22.668Z,13.00
2018-02-14T22:59:51.464Z,10.73
2018-02-14T23:02:20.286Z,9.77
2018-02-14T23:04:49.190Z,9.98
2018-02-14T23:07:17.986Z,10.57
2018-02-14T23:09:47.918Z,10.13
2018-02-14T23:12:16.697Z,11.70
2018-02-14T23:14:46.435Z,10.57
2018-02-14T23:17:16.345Z,11.45
2018-02-14T23:19:45.265Z,12.02
2018-02-14T23:22:14.073Z,17.95
2018-02-14T23:24:42.849Z,10.30
2018-02-14T23:27:11.701Z,9.90
2018-02-14T23:29:40.400Z,9.25
2018-02-14T23:32:09.323Z,7.05
2018-02-14T23:34:38.109Z,7.05
2018-02-14T23:37:07.632Z,13.80
2018-02-14T23:39:36.771Z,7.40
2018-02-14T23:42:05.616Z,5.90
2018-02-14T23:44:35.149Z,5.82
2018-02-14T23:47:04.296Z,6.10
2018-02-14T23:49:33.041Z,5.68
2018-02-14T23:52:02.251Z,6.70
2018-02-14T23:54:31.045Z,6.47
2018-02-14T23:56:59.786Z,27.62
2018-02-14T23:59:29.548Z,30.25
